Time;durP1;ratioP1;P1;durP2;ratioP2;P2;SDS_P1;SDS_P2;PMS_P1;PMS_P2;Temp;Humidity;BMP_temperature;BMP_pressure;BME280_temperature;BME280_humidity;BME280_pressure;Samples;Min_cycle;Max_cycle;Signal;HPM_P1;HPM_P2
2022/04/05 00:00:31;;;;;;;0.10;0.10;;;4.30;99.90;12.80;88045.00;;;;5013621;28;20268;-69
2022/04/05 00:03:00;;;;;;;0.03;0.03;;;4.40;99.90;12.80;88045.00;;;;5001141;28;20235;-69
2022/04/05 00:05:27;;;;;;;0.10;0.10;;;4.40;99.90;12.80;88045.00;;;;5011516;28;20203;-69
2022/04/05 00:07:55;;;;;;;0.10;0.10;;;4.40;99.90;12.80;88045.00;;;;5011466;28;20195;-70
2022/04/05 00:10:25;;;;;;;0.10;0.10;;;4.40;99.90;12.80;88045.00;;;;5010401;28;20195;-71
2022/04/05 00:12:53;;;;;;;0.10;0.10;;;4.40;99.90;12.80;88045.00;;;;4997789;28;20212;-70
2022/04/05 00:15:21;;;;;;;0.10;0.10;;;4.40;99.90;12.80;88045.00;;;;5000478;28;20211;-71
2022/04/05 00:17:49;;;;;;;0.10;0.10;;;4.40;99.90;12.80;88045.00;;;;5019489;28;20258;-70
2022/04/05 00:20:17;;;;;;;0.10;0.10;;;4.40;99.90;12.80;88045.00;;;;5011353;28;20222;-70
2022/04/05 00:22:45;;;;;;;0.10;0.10;;;4.40;99.90;12.80;88045.00;;;;5000392;28;20224;-69
2022/04/05 00:25:13;;;;;;;0.10;0.10;;;4.40;99.90;12.80;88045.00;;;;5008947;28;20203;-69
2022/04/05 00:27:43;;;;;;;0.03;0.03;;;4.40;99.90;12.80;88045.00;;;;5011393;28;20195;-69
2022/04/05 00:30:12;;;;;;;0.10;0.10;;;4.50;99.90;12.80;88045.00;;;;5008906;28;20307;-69
2022/04/05 00:32:40;;;;;;;0.10;0.10;;;4.40;99.90;12.80;88045.00;;;;5019474;28;20230;-69
2022/04/05 00:35:10;;;;;;;0.10;0.10;;;4.40;99.90;12.80;88045.00;;;;5014006;28;20219;-69
2022/04/05 00:37:56;;;;;;;0.10;0.10;;;4.40;99.90;12.80;88045.00;;;;5012609;28;20199;-69
2022/04/05 00:40:25;;;;;;;0.10;0.10;;;4.40;99.90;12.80;88045.00;;;;5011726;28;20405;-69
2022/04/05 00:42:55;;;;;;;0.10;0.10;;;4.50;99.90;12.80;88045.00;;;;5027372;28;20301;-68
2022/04/05 00:45:22;;;;;;;0.10;0.10;;;4.50;99.90;12.80;88045.00;;;;5015796;28;20677;-70
2022/04/05 00:47:54;;;;;;;0.10;0.10;;;4.50;99.90;12.80;88045.00;;;;5015675;28;20238;-70
2022/04/05 00:50:24;;;;;;;0.10;0.10;;;4.50;99.90;12.80;88045.00;;;;5030877;28;20294;-70
2022/04/05 00:52:52;;;;;;;0.10;0.10;;;4.50;99.90;12.80;88045.00;;;;5014239;28;20216;-70
2022/04/05 00:55:22;;;;;;;0.10;0.10;;;4.50;99.90;12.80;88045.00;;;;5000208;28;20694;-69
2022/04/05 00:57:55;;;;;;;0.10;0.10;;;4.50;99.90;12.80;88045.00;;;;4995177;28;20242;-70
2022/04/05 01:00:23;;;;;;;0.10;0.10;;;4.50;99.90;12.80;88045.00;;;;5019923;28;20721;-69
2022/04/05 01:02:54;;;;;;;0.10;0.10;;;4.50;99.90;12.80;88045.00;;;;5017403;28;20281;-69
2022/04/05 01:05:24;;;;;;;0.10;0.10;;;4.50;99.90;12.80;88045.00;;;;5013895;28;20199;-68
2022/04/05 01:07:56;;;;;;;0.20;0.20;;;4.50;99.90;12.80;88045.00;;;;4995112;28;20200;-69
2022/04/05 01:10:26;;;;;;;0.10;0.10;;;4.50;99.90;12.80;88045.00;;;;4995435;28;20196;-70
2022/04/05 01:12:56;;;;;;;0.10;0.10;;;4.50;99.90;12.80;88045.00;;;;4995286;28;20247;-69
2022/04/05 01:15:41;;;;;;;0.10;0.10;;;4.50;99.90;12.80;88045.00;;;;4995419;28;20309;-69
2022/04/05 01:18:09;;;;;;;0.10;0.10;;;4.40;99.90;12.80;88045.00;;;;5012705;28;20546;-69
2022/04/05 01:20:37;;;;;;;0.10;0.10;;;4.40;99.90;12.80;88045.00;;;;5017757;28;20192;-69
2022/04/05 01:23:06;;;;;;;0.10;0.10;;;4.40;1.00;12.80;88045.00;;;;5007349;28;20224;-69
2022/04/05 01:25:35;;;;;;;0.10;0.10;;;4.40;1.00;12.80;88045.00;;;;5005435;28;20192;-69
2022/04/05 01:28:03;;;;;;;0.10;0.10;;;4.40;1.00;12.80;88045.00;;;;5014918;28;20561;-69
2022/04/05 01:30:31;;;;;;;0.10;0.10;;;4.30;1.00;12.80;88045.00;;;;5014538;28;20204;-69
2022/04/05 01:33:00;;;;;;;0.10;0.10;;;4.30;1.00;12.80;88045.00;;;;5013997;28;20227;-69
2022/04/05 01:35:28;;;;;;;0.10;0.10;;;4.20;1.00;12.80;88045.00;;;;5017157;28;20219;-69
2022/04/05 01:37:56;;;;;;;0.10;0.10;;;4.20;1.00;12.80;88045.00;;;;5000674;28;20204;-69
2022/04/05 01:40:25;;;;;;;0.10;0.10;;;4.20;1.00;12.80;88045.00;;;;4996813;28;20215;-68
2022/04/05 01:42:55;;;;;;;0.10;0.10;;;4.20;1.00;12.80;88045.00;;;;5021917;28;20715;-69
2022/04/05 01:45:23;;;;;;;0.10;0.10;;;4.20;1.00;12.80;88045.00;;;;5013732;28;20203;-69
2022/04/05 01:47:51;;;;;;;0.10;0.10;;;4.20;1.00;12.80;88045.00;;;;5013913;28;20195;-69
2022/04/05 01:50:19;;;;;;;0.10;0.10;;;4.10;1.00;12.80;88045.00;;;;5014006;28;20204;-69
2022/04/05 01:52:47;;;;;;;0.10;0.10;;;4.10;1.00;12.80;88045.00;;;;5014035;28;20629;-69
2022/04/05 01:55:16;;;;;;;0.10;0.10;;;4.10;1.00;12.80;88045.00;;;;4998331;28;20220;-69
2022/04/05 01:57:44;;;;;;;0.10;0.10;;;4.10;1.00;12.80;88045.00;;;;5005883;28;20269;-70
2022/04/05 02:00:15;;;;;;;0.10;0.10;;;4.10;1.00;12.80;88045.00;;;;5025305;28;20222;-69
2022/04/05 02:02:43;;;;;;;0.10;0.10;;;4.10;1.00;12.80;88045.00;;;;5026267;28;20231;-70
2022/04/05 02:05:12;;;;;;;0.10;0.10;;;4.00;1.00;12.80;88045.00;;;;5005183;28;20542;-70
2022/04/05 02:07:39;;;;;;;0.10;0.10;;;4.00;1.00;12.80;88045.00;;;;4994310;28;20192;-70
2022/04/05 02:10:09;;;;;;;0.10;0.10;;;4.00;1.00;12.80;88045.00;;;;4992632;28;20192;-70
2022/04/05 02:12:39;;;;;;;0.10;0.10;;;4.00;1.00;12.80;88045.00;;;;4999322;28;20235;-70
2022/04/05 02:15:15;;;;;;;0.03;0.03;;;4.00;1.00;12.80;88045.00;;;;5023599;28;20597;-70
2022/04/05 02:17:57;;;;;;;0.10;0.10;;;4.00;1.00;12.80;88045.00;;;;5048494;28;20736;-70
2022/04/05 02:20:28;;;;;;;0.10;0.10;;;4.00;1.00;12.80;88045.00;;;;5033398;28;20586;-70
2022/04/05 02:22:56;;;;;;;0.10;0.10;;;4.00;1.00;12.80;88045.00;;;;5048336;28;20691;-70
2022/04/05 02:25:39;;;;;;;0.10;0.10;;;4.00;1.00;12.80;88045.00;;;;5031810;28;20203;-70
2022/04/05 02:28:08;;;;;;;0.10;0.10;;;4.00;1.00;12.80;88045.00;;;;5032588;28;20297;-70
2022/04/05 02:30:46;;;;;;;0.10;0.10;;;4.00;1.00;12.80;88045.00;;;;5023702;28;20191;-69
2022/04/05 02:33:17;;;;;;;0.10;0.10;;;4.00;1.00;12.80;88045.00;;;;5015662;28;20223;-69
2022/04/05 02:35:48;;;;;;;0.10;0.10;;;4.00;1.00;12.80;88045.00;;;;5028030;28;20222;-70
2022/04/05 02:38:16;;;;;;;0.10;0.10;;;4.00;1.00;12.80;88045.00;;;;5011136;28;20246;-70
2022/04/05 02:40:45;;;;;;;0.10;0.10;;;4.00;1.00;12.80;88045.00;;;;5003914;28;20199;-70
2022/04/05 02:43:16;;;;;;;0.10;0.10;;;4.00;1.00;12.80;88045.00;;;;5010285;28;20317;-70
2022/04/05 02:45:46;;;;;;;0.10;0.10;;;4.00;1.00;12.80;88045.00;;;;5025894;28;20421;-70
2022/04/05 02:48:16;;;;;;;0.10;0.10;;;4.00;1.00;12.80;88045.00;;;;4997284;28;20219;-70
2022/04/05 02:50:44;;;;;;;0.10;0.10;;;4.00;1.00;12.80;88045.00;;;;4999604;28;20673;-70
2022/04/05 02:53:12;;;;;;;0.10;0.10;;;4.00;1.00;12.80;88045.00;;;;5027829;28;20215;-70
2022/04/05 02:55:41;;;;;;;0.10;0.10;;;4.00;1.00;12.80;88045.00;;;;5000551;28;20219;-70
2022/04/05 02:58:10;;;;;;;0.10;0.10;;;4.00;1.00;12.80;88045.00;;;;5028496;28;20616;-70
2022/04/05 03:00:39;;;;;;;0.10;0.10;;;4.00;1.00;12.80;88045.00;;;;5044226;28;20290;-70
2022/04/05 03:03:14;;;;;;;0.10;0.10;;;4.00;1.00;12.80;88045.00;;;;5043739;22;20784;-69
2022/04/05 03:05:49;;;;;;;0.10;0.10;;;4.00;1.00;12.80;88045.00;;;;5011399;28;20290;-69
2022/04/05 03:08:18;;;;;;;0.10;0.10;;;4.00;1.00;12.80;88045.00;;;;5010077;28;20199;-69
2022/04/05 03:10:46;;;;;;;0.10;0.10;;;4.00;1.00;12.80;88045.00;;;;4993645;28;20196;-69
2022/04/05 03:13:15;;;;;;;0.10;0.10;;;4.00;1.00;12.80;88045.00;;;;4982031;28;20693;-69
2022/04/05 03:15:45;;;;;;;0.10;0.10;;;4.00;1.00;12.80;88045.00;;;;4987691;28;20203;-70
2022/04/05 03:18:16;;;;;;;0.10;0.10;;;4.00;1.00;12.80;88045.00;;;;4996097;28;20219;-70
2022/04/05 03:20:44;;;;;;;0.10;0.10;;;4.00;1.00;12.80;88045.00;;;;4995839;28;20701;-69
2022/04/05 03:23:13;;;;;;;0.10;0.10;;;4.00;1.00;12.80;88045.00;;;;4982690;28;20325;-69
2022/04/05 03:25:41;;;;;;;0.08;0.08;;;4.00;1.00;12.80;88045.00;;;;4991611;28;20227;-70
2022/04/05 03:28:09;;;;;;;0.10;0.10;;;4.00;1.00;12.80;88045.00;;;;4989161;28;20219;-70
2022/04/05 03:30:38;;;;;;;0.10;0.10;;;4.00;1.00;12.80;88045.00;;;;4991443;28;20208;-69
2022/04/05 03:33:07;;;;;;;0.10;0.10;;;4.10;1.00;12.80;88045.00;;;;5006073;28;20307;-70
2022/04/05 03:35:37;;;;;;;0.10;0.10;;;4.00;1.00;12.80;88045.00;;;;4988831;28;20196;-69
2022/04/05 03:38:06;;;;;;;0.10;0.10;;;4.10;1.00;12.80;88045.00;;;;4991752;28;20592;-70
2022/04/05 03:40:34;;;;;;;0.10;0.10;;;4.00;1.00;12.80;88045.00;;;;4987768;28;20239;-70
2022/04/05 03:43:07;;;;;;;0.10;0.10;;;4.00;1.00;12.80;88045.00;;;;4999891;28;20594;-69
2022/04/05 03:45:37;;;;;;;0.10;0.10;;;4.00;1.00;12.80;88045.00;;;;4984988;28;20264;-70
2022/04/05 03:48:06;;;;;;;0.10;0.10;;;4.00;1.00;12.80;88045.00;;;;4971949;28;20196;-69
2022/04/05 03:50:34;;;;;;;0.10;0.10;;;4.00;1.00;12.80;88045.00;;;;4971743;28;20200;-69
2022/04/05 03:53:04;;;;;;;0.10;0.10;;;4.00;1.00;12.80;88045.00;;;;4973091;28;20215;-69
2022/04/05 03:55:34;;;;;;;0.10;0.10;;;4.00;1.00;12.80;88045.00;;;;4976264;28;20570;-70
2022/04/05 03:58:06;;;;;;;0.10;0.10;;;4.00;1.00;12.80;88045.00;;;;5010022;28;20223;-70
2022/04/05 04:00:35;;;;;;;0.10;0.10;;;4.00;1.00;12.80;88045.00;;;;5012384;28;20198;-70
2022/04/05 04:03:13;;;;;;;0.10;0.10;;;4.00;1.00;12.80;88045.00;;;;4997426;28;20228;-70
2022/04/05 04:05:42;;;;;;;0.10;0.10;;;4.00;1.00;12.80;88045.00;;;;4985670;28;20196;-70
2022/04/05 04:08:13;;;;;;;0.10;0.10;;;4.10;1.00;12.80;88045.00;;;;4973149;28;20217;-69
2022/04/05 04:10:43;;;;;;;0.10;0.10;;;4.10;1.00;12.80;88045.00;;;;4971946;28;20211;-70
2022/04/05 04:13:11;;;;;;;0.10;0.10;;;4.00;1.00;12.80;88045.00;;;;4982968;28;20247;-70
2022/04/05 04:15:43;;;;;;;0.10;0.10;;;4.10;1.00;12.80;88045.00;;;;4982068;28;20288;-70
2022/04/05 04:18:11;;;;;;;0.10;0.10;;;4.00;1.00;12.80;88045.00;;;;4971871;28;20229;-70
2022/04/05 04:20:42;;;;;;;0.10;0.10;;;4.00;1.00;12.80;88045.00;;;;4990804;28;20203;-70
2022/04/05 04:23:14;;;;;;;0.10;0.10;;;4.00;1.00;12.80;88045.00;;;;4984692;28;20551;-69
2022/04/05 04:25:50;;;;;;;0.10;0.10;;;4.00;1.00;12.80;88045.00;;;;4993639;28;20669;-70
2022/04/05 04:28:18;;;;;;;0.10;0.10;;;4.00;1.00;12.80;88045.00;;;;4993126;28;20204;-69
2022/04/05 04:30:46;;;;;;;0.10;0.10;;;4.00;1.00;12.80;88045.00;;;;4990478;28;20598;-69
2022/04/05 04:33:14;;;;;;;0.10;0.10;;;4.00;1.00;12.80;88045.00;;;;4989042;28;20282;-69
2022/04/05 04:35:45;;;;;;;0.10;0.10;;;4.00;1.00;12.80;88045.00;;;;4990869;28;20207;-69
2022/04/05 04:38:15;;;;;;;0.10;0.10;;;4.00;1.00;12.80;88045.00;;;;4991889;28;20275;-70
2022/04/05 04:40:47;;;;;;;0.10;0.10;;;4.00;1.00;12.80;88045.00;;;;4975087;28;20216;-70
2022/04/05 04:43:16;;;;;;;0.10;0.10;;;4.00;1.00;12.80;88045.00;;;;4983255;28;20219;-70
2022/04/05 04:45:45;;;;;;;0.10;0.10;;;4.00;1.00;12.80;88045.00;;;;4981794;28;20271;-70
2022/04/05 04:48:14;;;;;;;0.10;0.10;;;4.00;1.00;12.80;88045.00;;;;4992087;28;20200;-70
2022/04/05 04:50:42;;;;;;;0.10;0.10;;;4.00;1.00;12.80;88045.00;;;;4984102;28;20633;-70
2022/04/05 04:53:10;;;;;;;0.10;0.10;;;4.00;1.00;12.80;88045.00;;;;4979077;28;20220;-70
2022/04/05 04:55:40;;;;;;;0.10;0.10;;;4.00;1.00;12.80;88045.00;;;;4992413;28;20192;-69
2022/04/05 04:58:28;;;;;;;0.10;0.10;;;4.10;1.00;12.80;88045.00;;;;4983017;28;20260;-69
2022/04/05 05:00:56;;;;;;;0.10;0.10;;;4.10;1.00;12.80;88045.00;;;;4974114;28;20197;-70
2022/04/05 05:03:24;;;;;;;0.00;0.00;;;4.10;1.00;12.80;88045.00;;;;4984344;28;20238;-70
2022/04/05 05:05:54;;;;;;;0.10;0.10;;;4.20;1.00;12.80;88045.00;;;;4991515;28;20255;-69
2022/04/05 05:08:22;;;;;;;0.10;0.10;;;4.20;1.00;12.80;88045.00;;;;4992145;28;20200;-69
2022/04/05 05:10:51;;;;;;;0.10;0.10;;;4.30;1.00;12.80;88045.00;;;;4994105;28;20704;-69
2022/04/05 05:13:20;;;;;;;0.10;0.10;;;4.30;1.00;12.80;88045.00;;;;4996103;28;20701;-69
2022/04/05 05:15:50;;;;;;;0.10;0.10;;;4.40;1.00;12.80;88045.00;;;;4992992;28;20201;-69
2022/04/05 05:18:19;;;;;;;0.10;0.10;;;4.40;1.00;12.80;88045.00;;;;4985163;28;20681;-70
2022/04/05 05:20:46;;;;;;;0.10;0.10;;;4.40;1.00;12.80;88045.00;;;;4994100;28;20204;-70
2022/04/05 05:23:15;;;;;;;0.10;0.10;;;4.40;1.00;12.80;88045.00;;;;4986127;28;20753;-71
2022/04/05 05:25:43;;;;;;;0.10;0.10;;;4.40;1.00;12.80;88045.00;;;;4984018;28;20214;-70
2022/04/05 05:28:13;;;;;;;0.10;0.10;;;4.40;1.00;12.80;88045.00;;;;4995126;28;20227;-70
2022/04/05 05:30:41;;;;;;;0.10;0.10;;;4.50;1.00;12.80;88045.00;;;;4978070;28;20201;-70
2022/04/05 05:33:09;;;;;;;0.10;0.10;;;4.50;1.00;12.80;88045.00;;;;4978419;28;20262;-69
2022/04/05 05:35:37;;;;;;;0.10;0.10;;;4.50;1.00;12.80;88045.00;;;;4995080;28;20197;-70
2022/04/05 05:38:05;;;;;;;0.10;0.10;;;4.50;1.00;12.80;88045.00;;;;4994958;28;20327;-69
2022/04/05 05:40:33;;;;;;;0.10;0.10;;;4.50;1.00;12.80;88045.00;;;;4995077;28;20728;-71
2022/04/05 05:43:03;;;;;;;0.10;0.10;;;4.50;1.00;12.80;88045.00;;;;4994977;28;20208;-71
2022/04/05 05:45:35;;;;;;;0.10;0.10;;;4.50;1.00;12.80;88045.00;;;;4995076;28;20284;-70
2022/04/05 05:48:06;;;;;;;0.10;0.10;;;4.60;1.00;12.80;88045.00;;;;4994998;28;20259;-69
2022/04/05 05:50:36;;;;;;;0.10;0.10;;;4.60;1.00;12.80;88045.00;;;;4995273;28;20188;-70
2022/04/05 05:53:05;;;;;;;0.10;0.10;;;4.60;1.00;12.80;88045.00;;;;4994697;28;20213;-70
2022/04/05 05:55:35;;;;;;;0.10;0.10;;;4.60;1.00;12.80;88045.00;;;;4994712;28;20338;-70
2022/04/05 05:58:04;;;;;;;0.10;0.10;;;4.60;1.00;12.80;88045.00;;;;4994952;28;20215;-70
2022/04/05 06:00:34;;;;;;;0.10;0.10;;;4.70;1.00;12.80;88045.00;;;;4994865;28;20184;-70
2022/04/05 06:03:03;;;;;;;0.10;0.10;;;4.70;1.00;12.80;88045.00;;;;4986808;28;20249;-71
2022/04/05 06:05:32;;;;;;;0.10;0.10;;;4.70;1.00;12.80;88045.00;;;;4994672;28;20192;-70
2022/04/05 06:08:00;;;;;;;0.10;0.10;;;4.70;1.00;12.80;88045.00;;;;4994863;28;20631;-70
2022/04/05 06:10:28;;;;;;;0.10;0.10;;;4.70;1.00;12.80;88045.00;;;;4994497;28;20720;-70
2022/04/05 06:12:57;;;;;;;0.10;0.10;;;4.70;1.00;12.80;88045.00;;;;4994809;28;20719;-70
2022/04/05 06:15:27;;;;;;;0.10;0.10;;;4.80;1.00;12.80;88045.00;;;;4994361;28;20280;-70
2022/04/05 06:17:58;;;;;;;0.10;0.10;;;4.80;1.00;12.80;88045.00;;;;4994545;28;20212;-70
2022/04/05 06:20:28;;;;;;;0.10;0.10;;;4.80;1.00;12.80;88045.00;;;;4994829;28;20200;-70
2022/04/05 06:22:59;;;;;;;0.10;0.10;;;4.80;1.00;12.80;88045.00;;;;4994384;28;20310;-70
2022/04/05 06:25:30;;;;;;;0.10;0.10;;;4.80;1.00;12.80;88045.00;;;;4994167;28;20197;-70
2022/04/05 06:28:02;;;;;;;0.10;0.10;;;4.80;1.00;12.80;88045.00;;;;4993884;28;20204;-70
2022/04/05 06:30:32;;;;;;;0.10;0.10;;;4.90;1.00;12.80;88045.00;;;;4994067;28;20192;-70
2022/04/05 06:33:11;;;;;;;0.10;0.10;;;4.90;1.00;12.80;88045.00;;;;4986388;28;20281;-70
2022/04/05 06:35:41;;;;;;;0.10;0.10;;;5.00;1.00;12.80;88045.00;;;;4993864;28;20184;-71
2022/04/05 06:38:10;;;;;;;0.10;0.10;;;5.00;1.00;12.80;88045.00;;;;4993752;28;20755;-70
2022/04/05 06:40:41;;;;;;;0.10;0.10;;;5.00;1.00;12.80;88045.00;;;;4994101;28;20196;-70
2022/04/05 06:43:09;;;;;;;0.10;0.10;;;5.10;1.00;12.80;88045.00;;;;4992975;28;20208;-71
2022/04/05 06:45:38;;;;;;;0.10;0.10;;;5.20;1.00;12.80;88045.00;;;;4993713;28;20192;-71
2022/04/05 06:48:09;;;;;;;0.10;0.10;;;5.20;1.00;12.80;88045.00;;;;4993632;28;20284;-70
2022/04/05 06:50:38;;;;;;;0.10;0.10;;;5.20;1.00;12.80;88045.00;;;;4994189;28;20200;-70
2022/04/05 06:53:09;;;;;;;0.10;0.10;;;5.30;1.00;12.80;88045.00;;;;4993573;28;20220;-70
2022/04/05 06:55:38;;;;;;;0.05;0.05;;;5.30;1.00;12.80;88045.00;;;;4992419;28;20263;-70
2022/04/05 06:58:08;;;;;;;0.10;0.10;;;5.30;1.00;12.80;88045.00;;;;4993597;28;20212;-70
2022/04/05 07:00:36;;;;;;;0.10;0.10;;;5.40;1.00;12.80;88045.00;;;;4994082;28;20188;-69
2022/04/05 07:03:07;;;;;;;0.05;0.05;;;5.40;1.00;12.80;88045.00;;;;4985624;28;20284;-70
2022/04/05 07:05:36;;;;;;;0.10;0.10;;;5.50;1.00;12.80;88045.00;;;;4993729;28;20615;-70
2022/04/05 07:08:05;;;;;;;0.10;0.10;;;5.50;1.00;12.80;88045.00;;;;4994404;28;20207;-71
2022/04/05 07:10:34;;;;;;;0.10;0.10;;;5.60;1.00;12.80;88045.00;;;;4998995;28;20573;-69
2022/04/05 07:13:02;;;;;;;0.00;0.00;;;5.60;1.00;12.80;88045.00;;;;4999419;28;20250;-71
2022/04/05 07:15:30;;;;;;;0.10;0.10;;;5.70;1.00;12.80;88045.00;;;;4999156;28;20227;-71
2022/04/05 07:17:58;;;;;;;0.10;0.10;;;5.70;1.00;12.80;88045.00;;;;4998860;28;20247;-70
2022/04/05 07:20:34;;;;;;;0.10;0.10;;;5.70;1.00;12.80;88045.00;;;;5000772;28;20193;-70
2022/04/05 07:23:03;;;;;;;0.10;0.10;;;5.80;1.00;12.80;88045.00;;;;4998940;28;20696;-70
2022/04/05 07:25:33;;;;;;;0.10;0.10;;;5.80;1.00;12.80;88045.00;;;;4999377;28;20570;-70
2022/04/05 07:28:02;;;;;;;0.10;0.10;;;5.80;1.00;12.80;88045.00;;;;5001210;28;20196;-70
2022/04/05 07:30:31;;;;;;;0.10;0.10;;;5.80;1.00;12.80;88045.00;;;;4990895;28;20200;-70
2022/04/05 07:32:59;;;;;;;0.10;0.10;;;5.90;1.00;12.80;88045.00;;;;4992061;28;20231;-70
2022/04/05 07:35:27;;;;;;;0.10;0.10;;;5.90;1.00;12.80;88045.00;;;;4986986;28;20196;-70
2022/04/05 07:37:56;;;;;;;0.10;0.10;;;6.00;1.00;12.80;88045.00;;;;4993373;28;20254;-70
2022/04/05 07:40:27;;;;;;;0.00;0.00;;;6.00;1.00;12.80;88045.00;;;;4992989;28;20733;-71
2022/04/05 07:42:55;;;;;;;0.10;0.10;;;6.00;1.00;12.80;88045.00;;;;4991910;28;20231;-71
2022/04/05 07:45:23;;;;;;;0.10;0.10;;;6.00;1.00;12.80;88045.00;;;;4993327;28;20192;-70
2022/04/05 07:47:51;;;;;;;0.10;0.10;;;6.10;1.00;12.80;88045.00;;;;4994772;28;20638;-71
2022/04/05 07:50:19;;;;;;;0.10;0.10;;;6.10;1.00;12.80;88045.00;;;;4998822;28;20204;-71
2022/04/05 07:52:50;;;;;;;0.00;0.00;;;6.20;1.00;12.80;88045.00;;;;5004984;28;20213;-71
2022/04/05 07:55:20;;;;;;;0.10;0.10;;;6.20;1.00;12.80;88045.00;;;;5000369;28;20685;-70
2022/04/05 07:57:49;;;;;;;0.10;0.10;;;6.30;1.00;12.80;88045.00;;;;4998746;28;20239;-70
2022/04/05 08:00:17;;;;;;;0.10;0.10;;;6.30;1.00;12.80;88045.00;;;;4997455;28;20236;-70
2022/04/05 08:02:45;;;;;;;0.10;0.10;;;6.40;1.00;12.80;88045.00;;;;4992358;28;20232;-70
2022/04/05 08:05:15;;;;;;;0.00;0.00;;;6.40;1.00;12.80;88045.00;;;;4990667;28;20295;-70
2022/04/05 08:07:46;;;;;;;0.10;0.10;;;6.40;1.00;12.80;88045.00;;;;4993535;28;20196;-70
2022/04/05 08:10:15;;;;;;;0.10;0.10;;;6.50;1.00;12.80;88045.00;;;;4991137;28;20561;-70
2022/04/05 08:12:47;;;;;;;0.10;0.10;;;6.50;1.00;12.80;88045.00;;;;4992540;28;20208;-70
2022/04/05 08:15:18;;;;;;;0.10;0.10;;;6.50;1.00;12.80;88045.00;;;;4992628;28;20200;-70
2022/04/05 08:17:46;;;;;;;0.10;0.10;;;6.50;1.00;12.80;88045.00;;;;4992511;28;20192;-70
2022/04/05 08:20:16;;;;;;;0.10;0.10;;;6.60;1.00;12.80;88045.00;;;;4992692;28;20227;-70
2022/04/05 08:22:44;;;;;;;0.10;0.10;;;6.70;1.00;12.80;88045.00;;;;4992558;28;20227;-70
2022/04/05 08:25:15;;;;;;;0.10;0.10;;;6.70;1.00;12.80;88045.00;;;;4992206;28;20196;-70
2022/04/05 08:27:47;;;;;;;0.10;0.10;;;6.70;1.00;12.80;88045.00;;;;4992507;28;20574;-70
2022/04/05 08:30:18;;;;;;;0.10;0.10;;;6.70;1.00;12.80;88045.00;;;;4992434;28;20215;-70
2022/04/05 08:32:49;;;;;;;0.10;0.10;;;6.80;1.00;12.80;88045.00;;;;4984773;28;20228;-70
2022/04/05 08:35:19;;;;;;;0.10;0.10;;;6.80;1.00;12.80;88045.00;;;;4992263;28;20654;-70
2022/04/05 08:37:50;;;;;;;0.10;0.10;;;6.90;1.00;12.80;88045.00;;;;4992444;28;20216;-70
2022/04/05 08:40:22;;;;;;;0.10;0.10;;;6.90;1.00;12.80;88045.00;;;;4992395;28;20627;-70
2022/04/05 08:42:53;;;;;;;0.10;0.10;;;7.00;1.00;12.80;88045.00;;;;4992271;28;20240;-70
2022/04/05 08:45:24;;;;;;;0.10;0.10;;;7.00;1.00;12.80;88045.00;;;;4992613;28;20657;-70
2022/04/05 08:47:54;;;;;;;0.10;0.10;;;7.10;1.00;12.80;88045.00;;;;4992257;28;20724;-70
2022/04/05 08:50:26;;;;;;;0.10;0.10;;;7.10;1.00;12.80;88045.00;;;;4992732;28;20200;-69
2022/04/05 08:52:55;;;;;;;0.10;0.10;;;7.20;1.00;12.80;88045.00;;;;4992636;28;20226;-70
2022/04/05 08:55:24;;;;;;;0.10;0.10;;;7.30;1.00;12.80;88045.00;;;;4993959;28;20196;-69
2022/04/05 08:57:53;;;;;;;0.10;0.10;;;7.30;1.00;12.80;88045.00;;;;4995940;28;20572;-70
2022/04/05 09:00:22;;;;;;;0.10;0.10;;;7.40;1.00;12.80;88045.00;;;;4995805;28;20365;-70
2022/04/05 09:03:00;;;;;;;0.10;0.10;;;7.40;1.00;12.80;88045.00;;;;4988631;28;20229;-69
2022/04/05 09:05:31;;;;;;;0.10;0.10;;;7.30;1.00;12.80;88045.00;;;;4995918;28;20531;-69
2022/04/05 09:08:17;;;;;;;0.10;0.10;;;7.30;1.00;12.80;88045.00;;;;4996084;28;20685;-69
2022/04/05 09:10:47;;;;;;;0.10;0.10;;;7.40;1.00;12.80;88045.00;;;;4995920;28;20207;-69
2022/04/05 09:13:22;;;;;;;0.10;0.10;;;7.40;1.00;12.80;88045.00;;;;4995804;28;20217;-69
2022/04/05 09:15:53;;;;;;;0.10;0.10;;;7.40;1.00;12.80;88045.00;;;;4995806;28;20192;-69
2022/04/05 09:18:39;;;;;;;0.10;0.10;;;7.30;1.00;12.80;88045.00;;;;4996369;28;20197;-69
2022/04/05 09:21:10;;;;;;;0.10;0.10;;;7.30;1.00;12.80;88045.00;;;;4996106;28;20319;-69
2022/04/05 09:23:41;;;;;;;0.10;0.10;;;7.30;1.00;12.80;88045.00;;;;4996359;28;20209;-69
2022/04/05 09:26:12;;;;;;;0.10;0.10;;;7.30;1.00;12.80;88045.00;;;;4995837;28;20199;-72
2022/04/05 09:28:44;;;;;;;0.10;0.10;;;7.20;1.00;12.80;88045.00;;;;4996113;28;20204;-69
2022/04/05 09:31:15;;;;;;;0.10;0.10;;;7.10;1.00;12.80;88045.00;;;;4996170;28;20212;-69
2022/04/05 09:34:08;;;;;;;0.10;0.10;;;7.00;1.00;12.80;88045.00;;;;4988863;28;20306;-69
2022/04/05 09:36:39;;;;;;;0.10;0.10;;;7.00;1.00;12.80;88045.00;;;;4991209;28;20203;-69
2022/04/05 09:39:16;;;;;;;0.10;0.10;;;7.00;1.00;12.80;88045.00;;;;4995929;28;20680;-69
2022/04/05 09:41:45;;;;;;;0.10;0.10;;;7.00;1.00;12.80;88045.00;;;;4995399;28;20199;-69
2022/04/05 09:44:26;;;;;;;0.10;0.10;;;7.10;1.00;12.80;88045.00;;;;4996230;28;20243;-69
2022/04/05 09:47:05;;;;;;;0.10;0.10;;;7.10;1.00;12.80;88045.00;;;;4995324;28;20188;-69
2022/04/05 09:49:36;;;;;;;0.10;0.10;;;7.20;1.00;12.80;88045.00;;;;4995387;28;20200;-69
2022/04/05 09:52:22;;;;;;;0.00;0.00;;;7.20;1.00;12.80;88045.00;;;;4995700;28;20192;-69
2022/04/05 09:54:51;;;;;;;0.10;0.10;;;7.20;1.00;12.80;88045.00;;;;4995647;28;20204;-69
2022/04/05 09:57:30;;;;;;;0.10;0.10;;;7.40;1.00;12.80;88045.00;;;;4995191;28;20224;-69
2022/04/05 10:00:11;;;;;;;0.10;0.10;;;7.40;1.00;12.80;88045.00;;;;4995696;28;20624;-69
2022/04/05 10:03:00;;;;;;;0.10;0.10;;;7.30;1.00;12.80;88045.00;;;;4988621;28;20320;-69
2022/04/05 10:05:30;;;;;;;0.10;0.10;;;7.20;1.00;12.80;88045.00;;;;4988972;28;20201;-69
2022/04/05 10:07:59;;;;;;;0.10;0.10;;;7.20;1.00;12.80;88045.00;;;;4994901;28;20192;-69
2022/04/05 10:10:27;;;;;;;0.10;0.10;;;7.20;1.00;12.80;88045.00;;;;4997492;28;20204;-69
2022/04/05 10:12:55;;;;;;;0.10;0.10;;;7.30;1.00;12.80;88045.00;;;;4999521;28;20209;-69
2022/04/05 10:15:28;;;;;;;0.03;0.03;;;7.30;1.00;12.80;88045.00;;;;4999736;28;20204;-69
2022/04/05 10:17:58;;;;;;;0.05;0.05;;;7.30;1.00;12.80;88045.00;;;;5000975;28;20205;-69
2022/04/05 10:20:29;;;;;;;0.00;0.00;;;7.20;1.00;12.80;88045.00;;;;5001613;28;20227;-69
2022/04/05 10:23:00;;;;;;;0.10;0.10;;;7.30;1.00;12.80;88045.00;;;;5000297;28;20223;-71
2022/04/05 10:25:30;;;;;;;0.10;0.10;;;7.20;1.00;12.80;88045.00;;;;4996433;28;20204;-69
2022/04/05 10:27:58;;;;;;;0.10;0.10;;;7.10;1.00;12.80;88045.00;;;;5000720;28;20216;-68
2022/04/05 10:30:38;;;;;;;0.10;0.10;;;7.00;1.00;12.80;88045.00;;;;4998010;28;20204;-71
2022/04/05 10:33:14;;;;;;;0.10;0.10;;;7.10;1.00;12.80;88045.00;;;;4990781;28;20229;-69
2022/04/05 10:35:52;;;;;;;0.10;0.10;;;7.10;1.00;12.80;88045.00;;;;4997905;28;20206;-69
2022/04/05 10:38:22;;;;;;;0.10;0.10;;;7.00;1.00;12.80;88045.00;;;;5002076;28;20200;-70
2022/04/05 10:41:19;;;;;;;0.10;0.10;;;6.80;1.00;12.80;88045.00;;;;4993000;28;20263;-69
2022/04/05 10:44:09;;;;;;;0.10;0.10;;;6.80;1.00;12.80;88045.00;;;;4998112;28;20239;-68
2022/04/05 10:46:42;;;;;;;0.10;0.10;;;6.90;1.00;12.80;88045.00;;;;4995965;28;20575;-68
2022/04/05 10:49:41;;;;;;;0.10;0.10;;;6.90;1.00;12.80;88045.00;;;;4996165;28;20258;-71
2022/04/05 10:52:13;;;;;;;0.10;0.10;;;6.90;1.00;12.80;88045.00;;;;4994331;28;20215;-69
2022/04/05 10:54:44;;;;;;;0.10;0.10;;;6.80;1.00;12.80;88045.00;;;;4994804;28;20682;-71
2022/04/05 10:57:30;;;;;;;0.10;0.10;;;6.80;1.00;12.80;88045.00;;;;4998365;28;20212;-68
2022/04/05 11:00:04;;;;;;;0.10;0.10;;;6.70;1.00;12.80;88045.00;;;;4997505;28;20657;-68
2022/04/05 11:02:38;;;;;;;0.10;0.10;;;6.70;1.00;12.80;88045.00;;;;4991032;28;20788;-68
2022/04/05 11:05:37;;;;;;;0.10;0.10;;;6.70;1.00;12.80;88045.00;;;;4997358;28;20618;-68
2022/04/05 11:08:20;;;;;;;0.10;0.10;;;6.70;1.00;12.80;88045.00;;;;4993726;28;20192;-69
2022/04/05 11:10:54;;;;;;;0.10;0.10;;;6.80;1.00;12.80;88045.00;;;;4993815;28;20188;-71
2022/04/05 11:13:46;;;;;;;0.10;0.10;;;6.80;1.00;12.80;88045.00;;;;4993509;28;20217;-69
2022/04/05 11:16:19;;;;;;;0.10;0.10;;;6.90;1.00;12.80;88045.00;;;;4993694;28;20200;-69
2022/04/05 11:18:58;;;;;;;0.10;0.10;;;6.80;1.00;12.80;88045.00;;;;4993378;28;20546;-69
2022/04/05 11:21:26;;;;;;;0.10;0.10;;;6.80;1.00;12.80;88045.00;;;;4993443;28;20282;-69
2022/04/05 11:23:54;;;;;;;0.10;0.10;;;6.90;1.00;12.80;88045.00;;;;4993491;28;20269;-69
2022/04/05 11:26:32;;;;;;;0.00;0.00;;;6.80;1.00;12.80;88045.00;;;;4993167;28;20199;-69